createdAt,value
2018-12-05T00:00:22.258Z,1007.72
2018-12-05T00:01:32.313Z,1007.74
2018-12-05T00:02:42.635Z,1007.76
2018-12-05T00:03:52.702Z,1007.73
2018-12-05T00:05:02.978Z,1007.74
2018-12-05T00:06:13.043Z,1007.79
2018-12-05T00:07:22.861Z,1007.83
2018-12-05T00:08:32.687Z,1007.8
2018-12-05T00:09:42.771Z,1007.77
2018-12-05T00:10:52.834Z,1007.78
2018-12-05T00:12:03.412Z,1007.79
2018-12-05T00:13:13.481Z,1007.86
2018-12-05T00:14:23.292Z,1007.85
2018-12-05T00:15:33.359Z,1007.86
2018-12-05T00:16:43.428Z,1007.85
2018-12-05T00:17:53.497Z,1007.8
2018-12-05T00:19:05.743Z,1007.85
2018-12-05T00:20:15.824Z,1007.8
2018-12-05T00:21:25.895Z,1007.88
2018-12-05T00:22:36.014Z,1007.88
2018-12-05T00:23:46.107Z,1007.89
2018-12-05T00:24:56.191Z,1007.92
2018-12-05T00:26:06.071Z,1007.99
2018-12-05T00:27:16.421Z,1008.02
2018-12-05T00:28:26.244Z,1008.07
2018-12-05T00:29:36.466Z,1008.06
2018-12-05T00:30:46.542Z,1008.04
2018-12-05T00:31:56.372Z,1008.01
2018-12-05T00:33:06.433Z,1008.07
2018-12-05T00:34:17.763Z,1008.06
2018-12-05T00:35:27.842Z,1008.07
2018-12-05T00:36:37.899Z,1008.16
2018-12-05T00:37:48.176Z,1008.14
2018-12-05T00:38:58.253Z,1008.1
2018-12-05T00:40:08.320Z,1008.15
2018-12-05T00:41:18.185Z,1008.09
2018-12-05T00:42:28.255Z,1008.15
2018-12-05T00:43:38.560Z,1008.14
2018-12-05T00:44:48.618Z,1008.15
2018-12-05T00:45:58.771Z,1008.18
2018-12-05T00:47:08.588Z,1008.2
2018-12-05T00:48:18.401Z,1008.14
2018-12-05T00:49:28.482Z,1008.15
2018-12-05T00:50:38.557Z,1008.15
2018-12-05T00:51:48.348Z,1008.2
2018-12-05T00:52:58.866Z,1008.21
2018-12-05T00:54:10.770Z,1008.2
2018-12-05T00:55:24.389Z,1008.21
2018-12-05T00:56:38.687Z,1008.23
2018-12-05T00:57:48.801Z,1008.28
2018-12-05T00:58:58.873Z,1008.29
2018-12-05T01:00:10.187Z,1008.34
2018-12-05T01:01:20.254Z,1008.35
2018-12-05T01:02:29.882Z,1008.36
2018-12-05T01:03:39.954Z,1008.37
2018-12-05T01:04:49.511Z,1008.36
2018-12-05T01:05:59.605Z,1008.31
2018-12-05T01:07:09.690Z,1008.35
2018-12-05T01:08:19.865Z,1008.38
2018-12-05T01:09:29.937Z,1008.39
2018-12-05T01:10:40.067Z,1008.4
2018-12-05T01:11:52.487Z,1008.39
2018-12-05T01:13:02.554Z,1008.45
2018-12-05T01:14:12.671Z,1008.34
2018-12-05T01:15:22.770Z,1008.41
2018-12-05T01:16:32.827Z,1008.4
2018-12-05T01:17:43.174Z,1008.44
2018-12-05T01:18:53.330Z,1008.45
2018-12-05T01:20:03.395Z,1008.47
2018-12-05T01:21:13.450Z,1008.49
2018-12-05T01:22:23.514Z,1008.4
2018-12-05T01:23:33.320Z,1008.4
2018-12-05T01:24:43.369Z,1008.5
2018-12-05T01:25:53.430Z,1008.43
2018-12-05T01:27:05.789Z,1008.46
2018-12-05T01:28:15.345Z,1008.44
2018-12-05T01:29:25.415Z,1008.46
2018-12-05T01:30:35.490Z,1008.44
2018-12-05T01:31:46.582Z,1008.47
2018-12-05T01:32:58.461Z,1008.46
2018-12-05T01:34:09.220Z,1008.42
2018-12-05T01:35:19.276Z,1008.46
2018-12-05T01:36:29.089Z,1008.43
2018-12-05T01:37:39.198Z,1008.51
2018-12-05T01:38:49.259Z,1008.51
2018-12-05T01:39:59.559Z,1008.52
2018-12-05T01:41:09.888Z,1008.53
2018-12-05T01:42:20.201Z,1008.61
2018-12-05T01:43:30.363Z,1008.6
2018-12-05T01:44:40.172Z,1008.64
2018-12-05T01:45:50.247Z,1008.68
2018-12-05T01:47:02.815Z,1008.66
2018-12-05T01:48:12.894Z,1008.75
2018-12-05T01:49:23.006Z,1008.71
2018-12-05T01:50:33.263Z,1008.74
2018-12-05T01:51:43.050Z,1008.78
2018-12-05T01:52:53.323Z,1008.81
2018-12-05T01:54:03.386Z,1008.8
2018-12-05T01:55:13.444Z,1008.82
2018-12-05T01:56:23.527Z,1008.83
2018-12-05T01:57:33.591Z,1008.85
2018-12-05T01:58:43.652Z,1008.85
2018-12-05T01:59:53.202Z,1008.84
2018-12-05T02:01:06.307Z,1008.85
2018-12-05T02:02:16.384Z,1008.9
2018-12-05T02:03:26.464Z,1008.9
2018-12-05T02:04:36.519Z,1008.9
2018-12-05T02:05:46.597Z,1008.93
2018-12-05T02:06:56.658Z,1008.91
2018-12-05T02:08:08.775Z,1008.87
2018-12-05T02:09:18.837Z,1008.91
2018-12-05T02:10:28.898Z,1008.95
2018-12-05T02:11:38.984Z,1008.95
2018-12-05T02:12:49.056Z,1008.92
2018-12-05T02:13:59.101Z,1008.92
2018-12-05T02:15:09.089Z,1008.91
2018-12-05T02:16:19.081Z,1008.93
2018-12-05T02:17:29.284Z,1008.89
2018-12-05T02:18:39.380Z,1008.94
2018-12-05T02:19:50.032Z,1008.97
2018-12-05T02:21:00.380Z,1008.99
2018-12-05T02:22:10.101Z,1008.98
2018-12-05T02:23:20.339Z,1009.01
2018-12-05T02:24:30.405Z,1009.04
2018-12-05T02:25:40.834Z,1009.08
2018-12-05T02:26:50.838Z,1009.07
2018-12-05T02:28:00.834Z,1009.11
2018-12-05T02:29:10.831Z,1009.11
2018-12-05T02:30:20.819Z,1009.16
2018-12-05T02:31:30.827Z,1009.11
2018-12-05T02:32:41.124Z,1009.16
2018-12-05T02:33:51.135Z,1009.14
2018-12-05T02:35:01.133Z,1009.14
2018-12-05T02:36:11.195Z,1009.16
2018-12-05T02:37:21.206Z,1009.15
2018-12-05T02:38:31.070Z,1009.18
2018-12-05T02:39:40.821Z,1009.17
2018-12-05T02:40:50.852Z,1009.18
2018-12-05T02:42:00.919Z,1009.23
2018-12-05T02:43:10.967Z,1009.21
2018-12-05T02:44:21.519Z,1009.16
2018-12-05T02:45:32.786Z,1009.19
2018-12-05T02:46:42.788Z,1009.16
2018-12-05T02:47:52.855Z,1009.17
2018-12-05T02:49:02.922Z,1009.15
2018-12-05T02:50:13.186Z,1009.14
2018-12-05T02:51:23.275Z,1009.12
2018-12-05T02:52:33.345Z,1009.14
2018-12-05T02:53:43.531Z,1009.13
2018-12-05T02:54:53.591Z,1009.15
2018-12-05T02:56:04.224Z,1009.11
2018-12-05T02:57:13.766Z,1009.13
2018-12-05T02:58:23.841Z,1009.2
2018-12-05T02:59:33.918Z,1009.2
2018-12-05T03:00:43.984Z,1009.23
2018-12-05T03:01:54.069Z,1009.25
2018-12-05T03:03:04.149Z,1009.25
2018-12-05T03:34:59.154Z,1009.37
2018-12-05T03:36:09.191Z,1009.41
2018-12-05T03:37:19.237Z,1009.4
2018-12-05T03:38:29.300Z,1009.39
2018-12-05T03:39:39.384Z,1009.41
2018-12-05T03:40:49.787Z,1009.41
2018-12-05T03:41:59.852Z,1009.43
2018-12-05T03:43:10.062Z,1009.44
2018-12-05T03:44:19.873Z,1009.43
2018-12-05T03:45:31.570Z,1009.45
2018-12-05T03:46:41.832Z,1009.53
2018-12-05T03:47:51.901Z,1009.56
2018-12-05T03:49:01.720Z,1009.54
2018-12-05T03:50:11.771Z,1009.6
2018-12-05T03:51:21.571Z,1009.57
2018-12-05T03:52:31.417Z,1009.59
2018-12-05T03:53:41.478Z,1009.57
2018-12-05T03:54:51.537Z,1009.66
2018-12-05T03:56:01.355Z,1009.61
2018-12-05T03:57:11.184Z,1009.65
2018-12-05T03:58:21.268Z,1009.65
2018-12-05T03:59:31.338Z,1009.68
2018-12-05T04:00:41.401Z,1009.71
2018-12-05T04:01:51.480Z,1009.71
2018-12-05T04:03:02.774Z,1009.77
2018-12-05T04:04:12.894Z,1009.79
2018-12-05T04:05:22.970Z,1009.78
2018-12-05T04:06:33.037Z,1009.82
2018-12-05T04:07:43.310Z,1009.84
2018-12-05T04:08:53.388Z,1009.84
2018-12-05T04:10:06.219Z,1009.87
2018-12-05T04:11:16.292Z,1009.83
2018-12-05T04:12:26.370Z,1009.86
2018-12-05T04:13:43.645Z,1009.88
2018-12-05T04:14:53.727Z,1009.89
2018-12-05T04:16:05.970Z,1009.91
2018-12-05T04:17:16.055Z,1009.93
2018-12-05T04:18:26.124Z,1009.91
2018-12-05T04:19:36.175Z,1009.88
2018-12-05T04:20:46.270Z,1009.83
2018-12-05T04:21:56.097Z,1009.84
2018-12-05T04:23:06.182Z,1009.86
2018-12-05T04:24:16.243Z,1009.86
2018-12-05T04:25:26.323Z,1009.83
2018-12-05T04:26:36.371Z,1009.78
2018-12-05T04:27:46.450Z,1009.81
2018-12-05T04:28:56.254Z,1009.84
2018-12-05T04:30:06.073Z,1009.88
2018-12-05T04:31:16.122Z,1009.9
2018-12-05T04:32:26.167Z,1009.9
2018-12-05T04:33:35.989Z,1009.95
2018-12-05T04:34:46.052Z,1010
2018-12-05T04:35:56.351Z,1009.98
2018-12-05T04:37:07.885Z,1010.04
2018-12-05T04:38:18.078Z,1010
2018-12-05T04:39:28.379Z,1010.01
2018-12-05T04:40:38.436Z,1010.08
2018-12-05T04:41:48.536Z,1010.1
2018-12-05T04:42:58.342Z,1010.12
2018-12-05T04:44:09.566Z,1010.09
2018-12-05T04:45:19.395Z,1010.12
2018-12-05T04:46:29.465Z,1010.1
2018-12-05T04:47:39.266Z,1010.13
2018-12-05T04:48:49.336Z,1010.15
2018-12-05T04:49:59.443Z,1010.12
2018-12-05T04:51:11.406Z,1010.12
2018-12-05T04:52:21.501Z,1010.08
2018-12-05T04:53:31.569Z,1010.1
2018-12-05T04:54:41.383Z,1010.11
2018-12-05T04:55:51.479Z,1010.12
2018-12-05T04:57:02.466Z,1010.12
2018-12-05T04:58:12.373Z,1010.13
2018-12-05T04:59:22.427Z,1010.14
2018-12-05T05:00:32.266Z,1010.15
2018-12-05T05:01:42.364Z,1010.16
2018-12-05T05:02:52.468Z,1010.2
2018-12-05T05:04:02.611Z,1010.18
2018-12-05T05:05:12.662Z,1010.22
2018-12-05T05:06:22.480Z,1010.23
2018-12-05T05:07:32.656Z,1010.22
2018-12-05T05:08:42.790Z,1010.25
2018-12-05T05:09:52.850Z,1010.23
2018-12-05T05:11:02.912Z,1010.22
2018-12-05T05:12:12.968Z,1010.23
2018-12-05T05:13:23.041Z,1010.27
2018-12-05T05:14:33.300Z,1010.29
2018-12-05T05:15:43.821Z,1010.31
2018-12-05T05:16:53.883Z,1010.33
2018-12-05T05:18:03.942Z,1010.33
2018-12-05T05:19:14.024Z,1010.33
2018-12-05T05:20:23.862Z,1010.32
2018-12-05T05:21:33.907Z,1010.33
2018-12-05T05:22:43.980Z,1010.35
2018-12-05T05:23:54.199Z,1010.38
2018-12-05T05:25:04.295Z,1010.36
2018-12-05T05:26:14.373Z,1010.35
2018-12-05T05:27:24.442Z,1010.34
2018-12-05T05:28:34.524Z,1010.35
2018-12-05T05:29:44.601Z,1010.39
2018-12-05T05:30:54.678Z,1010.37
2018-12-05T05:32:05.330Z,1010.38
2018-12-05T05:33:15.654Z,1010.39
2018-12-05T05:34:25.514Z,1010.44
2018-12-05T05:35:35.576Z,1010.44
2018-12-05T05:36:45.662Z,1010.47
2018-12-05T05:37:55.713Z,1010.51
2018-12-05T05:39:05.796Z,1010.53
2018-12-05T05:40:15.872Z,1010.43
2018-12-05T05:41:25.986Z,1010.43
2018-12-05T05:42:36.080Z,1010.4
2018-12-05T05:43:46.122Z,1010.45
2018-12-05T05:44:55.952Z,1010.48
2018-12-05T05:46:05.803Z,1010.51
2018-12-05T05:47:15.970Z,1010.48
2018-12-05T05:48:26.018Z,1010.51
2018-12-05T05:49:36.098Z,1010.48
2018-12-05T05:50:46.212Z,1010.56
2018-12-05T05:51:56.037Z,1010.55
2018-12-05T05:53:06.171Z,1010.55
2018-12-05T05:54:16.215Z,1010.53
2018-12-05T05:55:26.286Z,1010.58
2018-12-05T05:56:36.095Z,1010.53
2018-12-05T05:57:46.249Z,1010.57
2018-12-05T05:58:56.313Z,1010.52
2018-12-05T06:00:08.915Z,1010.6
2018-12-05T06:01:18.979Z,1010.58
2018-12-05T06:02:28.850Z,1010.57
2018-12-05T06:03:38.924Z,1010.59
2018-12-05T06:04:48.746Z,1010.6
2018-12-05T06:05:58.555Z,1010.6
2018-12-05T06:07:08.547Z,1010.67
2018-12-05T06:08:18.339Z,1010.68
2018-12-05T06:09:28.421Z,1010.65
2018-12-05T06:10:38.491Z,1010.69
2018-12-05T06:11:48.289Z,1010.72
2018-12-05T06:12:58.407Z,1010.67
2018-12-05T06:14:10.662Z,1010.69
2018-12-05T06:15:20.725Z,1010.71
2018-12-05T06:16:30.838Z,1010.71
2018-12-05T06:17:40.917Z,1010.72
2018-12-05T06:18:51.823Z,1010.77
2018-12-05T06:20:03.588Z,1010.8
2018-12-05T06:21:13.682Z,1010.8
2018-12-05T06:22:23.790Z,1010.84
2018-12-05T06:23:33.864Z,1010.84
2018-12-05T06:24:43.926Z,1010.89
2018-12-05T06:25:53.985Z,1010.92
2018-12-05T06:27:05.575Z,1010.94
2018-12-05T06:28:15.510Z,1011
2018-12-05T06:29:25.578Z,1010.97
2018-12-05T06:30:35.637Z,1010.98
2018-12-05T06:31:45.705Z,1010.99
2018-12-05T06:32:55.770Z,1011.03
2018-12-05T06:34:06.041Z,1011.03
2018-12-05T06:35:16.095Z,1011.05
2018-12-05T06:36:25.941Z,1011.13
2018-12-05T06:37:35.991Z,1011.13
2018-12-05T06:38:46.154Z,1011.17
2018-12-05T06:39:56.258Z,1011.18
2018-12-05T06:41:06.070Z,1011.2
2018-12-05T06:42:16.131Z,1011.17
2018-12-05T06:43:26.449Z,1011.15
2018-12-05T06:44:36.540Z,1011.15
2018-12-05T06:45:46.616Z,1011.19
2018-12-05T06:46:56.681Z,1011.21
2018-12-05T06:48:07.985Z,1011.21
2018-12-05T06:49:18.071Z,1011.23
2018-12-05T06:50:28.178Z,1011.26
2018-12-05T06:51:38.226Z,1011.28
2018-12-05T06:52:48.325Z,1011.28
2018-12-05T06:53:58.393Z,1011.25
2018-12-05T06:55:09.213Z,1011.26
2018-12-05T06:56:19.285Z,1011.31
2018-12-05T06:57:29.310Z,1011.29
2018-12-05T06:58:39.370Z,1011.26
2018-12-05T06:59:49.336Z,1011.29
2018-12-05T07:00:59.393Z,1011.36
2018-12-05T07:02:09.455Z,1011.38
2018-12-05T07:03:19.577Z,1011.34
2018-12-05T07:04:29.640Z,1011.4
2018-12-05T07:05:39.690Z,1011.4
2018-12-05T07:06:49.752Z,1011.41
2018-12-05T07:07:59.842Z,1011.41
2018-12-05T07:09:10.354Z,1011.48
2018-12-05T07:10:20.432Z,1011.48
2018-12-05T07:11:30.744Z,1011.5
2018-12-05T07:12:40.564Z,1011.56
2018-12-05T07:13:50.628Z,1011.53
2018-12-05T07:15:02.170Z,1011.52
2018-12-05T07:16:12.238Z,1011.56
2018-12-05T07:17:22.411Z,1011.55
2018-12-05T07:18:34.051Z,1011.58
2018-12-05T07:19:44.189Z,1011.59
2018-12-05T07:20:54.526Z,1011.62
2018-12-05T07:22:04.689Z,1011.65
2018-12-05T07:23:14.721Z,1011.63
2018-12-05T07:24:24.786Z,1011.57
2018-12-05T07:25:34.881Z,1011.61
2018-12-05T07:26:45.063Z,1011.63
2018-12-05T07:27:55.136Z,1011.64
2018-12-05T07:29:05.192Z,1011.66
2018-12-05T07:30:15.028Z,1011.69
2018-12-05T07:31:32.324Z,1011.66
2018-12-05T07:34:07.239Z,1011.64
2018-12-05T07:35:17.044Z,1011.62
2018-12-05T07:36:27.970Z,1011.61
2018-12-05T07:37:38.175Z,1011.56
2018-12-05T07:38:47.745Z,1011.52
2018-12-05T07:39:57.808Z,1011.56
2018-12-05T07:41:08.024Z,1011.56
2018-12-05T07:42:17.843Z,1011.59
2018-12-05T07:43:28.012Z,1011.62
2018-12-05T07:44:38.170Z,1011.62
2018-12-05T07:45:48.233Z,1011.68
2018-12-05T07:46:58.310Z,1011.66
2018-12-05T07:48:08.128Z,1011.67
2018-12-05T07:49:18.418Z,1011.73
2018-12-05T07:50:28.502Z,1011.76
2018-12-05T07:51:38.612Z,1011.72
2018-12-05T07:52:48.700Z,1011.74
2018-12-05T07:53:58.785Z,1011.76
2018-12-05T07:55:08.610Z,1011.76
2018-12-05T07:56:18.717Z,1011.81
2018-12-05T07:57:29.076Z,1011.81
2018-12-05T07:58:40.836Z,1011.84
2018-12-05T07:59:50.958Z,1011.8
2018-12-05T08:01:04.096Z,1011.8
2018-12-05T08:02:13.950Z,1011.8
2018-12-05T08:03:24.014Z,1011.82
2018-12-05T08:04:34.141Z,1011.79
2018-12-05T08:05:44.217Z,1011.84
2018-12-05T08:06:54.294Z,1011.86
2018-12-05T08:08:06.060Z,1011.87
2018-12-05T08:09:16.177Z,1011.94
2018-12-05T08:10:26.296Z,1011.91
2018-12-05T08:11:36.348Z,1011.92
2018-12-05T08:12:46.435Z,1011.95
2018-12-05T08:13:56.234Z,1011.97
2018-12-05T08:15:09.549Z,1011.94
2018-12-05T08:16:19.639Z,1011.95
2018-12-05T08:17:29.194Z,1011.95
2018-12-05T08:18:39.248Z,1011.98
2018-12-05T08:19:49.102Z,1011.93
2018-12-05T08:20:59.182Z,1011.96
2018-12-05T08:22:09.335Z,1011.96
2018-12-05T08:23:19.388Z,1011.98
2018-12-05T08:24:29.249Z,1012
2018-12-05T08:25:40.817Z,1011.93
2018-12-05T08:26:51.045Z,1011.91
2018-12-05T08:28:01.123Z,1011.93
2018-12-05T08:29:11.183Z,1011.89
2018-12-05T08:30:21.253Z,1011.96
2018-12-05T08:31:31.335Z,1011.95
2018-12-05T08:32:41.395Z,1011.95
2018-12-05T08:33:51.478Z,1011.95
2018-12-05T08:35:01.562Z,1011.98
2018-12-05T08:36:11.614Z,1011.95
2018-12-05T08:37:21.504Z,1011.98
2018-12-05T08:38:31.591Z,1011.96
2018-12-05T08:39:41.719Z,1011.99
2018-12-05T08:40:51.546Z,1012.01
2018-12-05T08:42:02.146Z,1012.02
2018-12-05T08:43:12.723Z,1012.05
2018-12-05T08:44:22.829Z,1012.08
2018-12-05T08:45:32.897Z,1012.1
2018-12-05T08:46:42.966Z,1012.09
2018-12-05T08:47:53.025Z,1012.06
2018-12-05T08:49:05.635Z,1012.06
2018-12-05T08:50:15.693Z,1012.05
2018-12-05T08:51:25.499Z,1012.08
2018-12-05T08:52:35.654Z,1012.01
2018-12-05T08:53:45.729Z,1012.02
2018-12-05T08:54:55.813Z,1011.94
2018-12-05T08:56:05.899Z,1012
2018-12-05T08:57:16.011Z,1011.99
2018-12-05T08:58:26.345Z,1012.01
2018-12-05T08:59:36.412Z,1011.98
2018-12-05T09:00:46.210Z,1011.97
2018-12-05T09:01:56.289Z,1012.02
2018-12-05T09:03:06.358Z,1011.98
2018-12-05T09:04:16.429Z,1011.99
2018-12-05T09:05:26.487Z,1011.97
2018-12-05T09:06:36.317Z,1012.03
2018-12-05T09:07:45.886Z,1012.05
2018-12-05T09:08:55.733Z,1012
2018-12-05T09:10:05.950Z,1011.98
2018-12-05T09:11:16.028Z,1012.04
2018-12-05T09:12:26.074Z,1012.06
2018-12-05T09:13:36.166Z,1012.07
2018-12-05T09:14:45.999Z,1012.09
2018-12-05T09:15:56.122Z,1012.12
2018-12-05T09:17:06.179Z,1012.18
2018-12-05T09:18:18.262Z,1012.15
2018-12-05T09:19:33.159Z,1012.14
2018-12-05T09:20:46.809Z,1012.14
2018-12-05T09:21:59.426Z,1012.12
2018-12-05T09:23:18.215Z,1012.1
2018-12-05T09:24:35.169Z,1012.13
2018-12-05T09:25:52.037Z,1012.14
2018-12-05T09:27:09.774Z,1012.16
2018-12-05T09:28:26.092Z,1012.18
2018-12-05T09:29:42.911Z,1012.21
2018-12-05T09:30:59.587Z,1012.24
2018-12-05T09:32:10.894Z,1012.22
2018-12-05T09:33:20.953Z,1012.25
2018-12-05T09:34:31.054Z,1012.22
2018-12-05T09:35:41.125Z,1012.26
2018-12-05T09:36:51.248Z,1012.29
2018-12-05T09:38:03.328Z,1012.24
2018-12-05T09:39:13.240Z,1012.21
2018-12-05T09:40:23.286Z,1012.24
2018-12-05T09:41:33.356Z,1012.19
2018-12-05T09:42:43.414Z,1012.25
2018-12-05T09:43:53.492Z,1012.24
2018-12-05T09:45:03.769Z,1012.17
2018-12-05T09:46:13.574Z,1012.17
2018-12-05T09:47:23.612Z,1012.19
2018-12-05T09:48:33.690Z,1012.21
2018-12-05T09:49:43.741Z,1012.18
2018-12-05T09:50:53.784Z,1012.19
2018-12-05T09:52:03.859Z,1012.18
2018-12-05T09:53:13.673Z,1012.2
2018-12-05T09:54:23.467Z,1012.18
2018-12-05T09:55:33.033Z,1012.19
2018-12-05T09:56:43.112Z,1012.16
2018-12-05T09:57:52.912Z,1012.2
2018-12-05T09:59:03.391Z,1012.12
2018-12-05T10:00:13.582Z,1012.15
2018-12-05T10:01:24.130Z,1012.13
2018-12-05T10:02:34.183Z,1012.17
2018-12-05T10:03:44.369Z,1012.16
2018-12-05T10:04:54.428Z,1012.14
2018-12-05T10:06:04.238Z,1012.12
2018-12-05T10:07:14.333Z,1012.18
2018-12-05T10:08:24.129Z,1012.09
2018-12-05T10:09:34.243Z,1012.07
2018-12-05T10:10:46.268Z,1012.09
2018-12-05T10:11:56.333Z,1012.08
2018-12-05T10:13:06.446Z,1012.04
2018-12-05T10:14:16.548Z,1012
2018-12-05T10:15:26.617Z,1012.02
2018-12-05T10:16:36.707Z,1012.08
2018-12-05T10:17:46.778Z,1012.03
2018-12-05T10:18:56.936Z,1012.04
2018-12-05T10:20:07.564Z,1011.98
2018-12-05T10:21:17.641Z,1011.99
2018-12-05T10:22:27.450Z,1012.01
2018-12-05T10:23:37.554Z,1012
2018-12-05T10:24:47.608Z,1011.96
2018-12-05T10:25:57.421Z,1011.95
2018-12-05T10:27:07.495Z,1011.95
2018-12-05T10:28:17.668Z,1011.98
2018-12-05T10:29:27.731Z,1011.95
2018-12-05T10:30:37.788Z,1011.94
2018-12-05T10:31:47.857Z,1011.96
2018-12-05T10:32:57.685Z,1011.99
2018-12-05T10:34:07.536Z,1011.95
2018-12-05T10:35:17.403Z,1011.9
2018-12-05T10:36:27.286Z,1011.9
2018-12-05T10:37:37.347Z,1011.9
2018-12-05T10:38:47.406Z,1011.92
2018-12-05T10:39:57.494Z,1011.85
2018-12-05T10:41:07.703Z,1011.88
2018-12-05T10:42:17.790Z,1011.91
2018-12-05T10:43:27.588Z,1011.85
2018-12-05T10:44:37.650Z,1011.83
2018-12-05T10:45:47.723Z,1011.79
2018-12-05T10:46:57.833Z,1011.75
2018-12-05T10:48:08.043Z,1011.73
2018-12-05T10:49:18.129Z,1011.72
2018-12-05T10:50:28.234Z,1011.69
2018-12-05T10:51:38.324Z,1011.66
2018-12-05T10:52:48.384Z,1011.66
2018-12-05T10:53:58.439Z,1011.7
2018-12-05T10:55:08.235Z,1011.69
2018-12-05T10:56:18.291Z,1011.63
2018-12-05T10:57:28.343Z,1011.61
2018-12-05T10:58:38.459Z,1011.6
2018-12-05T10:59:48.535Z,1011.61
2018-12-05T11:00:58.367Z,1011.62
2018-12-05T11:02:08.436Z,1011.55
2018-12-05T11:03:18.489Z,1011.55
2018-12-05T11:04:29.036Z,1011.53
2018-12-05T11:05:39.119Z,1011.54
2018-12-05T11:06:49.166Z,1011.52
2018-12-05T11:07:59.234Z,1011.51
2018-12-05T11:09:09.305Z,1011.53
2018-12-05T11:10:19.412Z,1011.47
2018-12-05T11:11:29.494Z,1011.54
2018-12-05T11:12:39.572Z,1011.51
2018-12-05T11:13:49.380Z,1011.48
2018-12-05T11:14:59.209Z,1011.48
2018-12-05T11:16:09.335Z,1011.4
2018-12-05T11:17:19.140Z,1011.42
2018-12-05T11:18:29.219Z,1011.46
2018-12-05T11:19:40.374Z,1011.39
2018-12-05T11:20:50.434Z,1011.42
2018-12-05T11:22:00.895Z,1011.42
2018-12-05T11:23:10.702Z,1011.43
2018-12-05T11:24:20.525Z,1011.38
2018-12-05T11:25:30.600Z,1011.33
2018-12-05T11:26:40.444Z,1011.34
2018-12-05T11:27:50.237Z,1011.35
2018-12-05T11:29:03.411Z,1011.31
2018-12-05T11:30:13.570Z,1011.32
2018-12-05T11:31:23.633Z,1011.3
2018-12-05T11:32:33.716Z,1011.33
2018-12-05T11:33:43.779Z,1011.37
2018-12-05T11:34:53.834Z,1011.38
2018-12-05T11:36:04.234Z,1011.35
2018-12-05T11:37:14.035Z,1011.3
2018-12-05T11:38:23.914Z,1011.37
2018-12-05T11:39:33.990Z,1011.36
2018-12-05T11:40:43.797Z,1011.32
2018-12-05T11:41:53.854Z,1011.33
2018-12-05T11:43:03.909Z,1011.28
2018-12-05T11:44:13.812Z,1011.31
2018-12-05T11:45:23.931Z,1011.31
2018-12-05T11:46:33.585Z,1011.29
2018-12-05T11:47:43.665Z,1011.29
2018-12-05T11:48:53.739Z,1011.33
2018-12-05T11:50:06.098Z,1011.3
2018-12-05T11:51:16.248Z,1011.22
2018-12-05T11:52:26.351Z,1011.23
2018-12-05T11:53:36.408Z,1011.22
2018-12-05T11:54:46.482Z,1011.21
2018-12-05T11:55:56.299Z,1011.22
2018-12-05T11:57:06.662Z,1011.25
2018-12-05T11:58:16.725Z,1011.27
2018-12-05T11:59:26.525Z,1011.27
2018-12-05T12:00:36.584Z,1011.32
2018-12-05T12:01:46.154Z,1011.34
2018-12-05T12:02:56.080Z,1011.3
2018-12-05T12:04:06.422Z,1011.3
2018-12-05T12:05:16.515Z,1011.34
2018-12-05T12:06:27.473Z,1011.3
2018-12-05T12:07:37.586Z,1011.3
2018-12-05T12:08:47.725Z,1011.28
2018-12-05T12:09:57.605Z,1011.25
2018-12-05T12:11:07.680Z,1011.24
2018-12-05T12:12:17.758Z,1011.29
2018-12-05T12:13:27.828Z,1011.3
2018-12-05T12:14:37.954Z,1011.32
2018-12-05T12:15:48.035Z,1011.32
2018-12-05T12:16:58.117Z,1011.28
2018-12-05T12:18:08.844Z,1011.25
2018-12-05T12:19:18.664Z,1011.27
2018-12-05T12:20:28.747Z,1011.22
2018-12-05T12:21:38.883Z,1011.2
2018-12-05T12:22:48.983Z,1011.22
2018-12-05T12:23:59.189Z,1011.22
2018-12-05T12:25:10.098Z,1011.19
2018-12-05T12:26:20.168Z,1011.26
2018-12-05T12:27:36.276Z,1011.27
2018-12-05T12:28:46.351Z,1011.31
2018-12-05T12:29:56.450Z,1011.29
2018-12-05T12:31:06.535Z,1011.31
2018-12-05T12:32:16.354Z,1011.28
2018-12-05T12:33:26.422Z,1011.33
2018-12-05T12:34:36.492Z,1011.32
2018-12-05T12:35:46.575Z,1011.29
2018-12-05T12:36:56.158Z,1011.26
2018-12-05T12:38:07.408Z,1011.27
2018-12-05T12:39:17.245Z,1011.31
2018-12-05T12:40:27.332Z,1011.35
2018-12-05T12:41:37.432Z,1011.3
2018-12-05T12:42:47.836Z,1011.28
2018-12-05T12:43:57.697Z,1011.24
2018-12-05T12:45:07.795Z,1011.26
2018-12-05T12:46:17.896Z,1011.26
2018-12-05T12:47:27.981Z,1011.23
2018-12-05T12:48:39.481Z,1011.2
2018-12-05T12:49:49.674Z,1011.22
2018-12-05T12:50:59.765Z,1011.21
2018-12-05T12:52:09.864Z,1011.19
2018-12-05T12:53:20.184Z,1011.21
2018-12-05T12:54:30.538Z,1011.26
2018-12-05T12:55:40.420Z,1011.25
2018-12-05T12:56:50.485Z,1011.19
2018-12-05T12:58:03.375Z,1011.18
2018-12-05T12:59:13.652Z,1011.23
2018-12-05T13:00:23.731Z,1011.21
2018-12-05T13:01:33.936Z,1011.18
2018-12-05T13:02:44.231Z,1011.17
2018-12-05T13:03:54.317Z,1011.19
2018-12-05T13:05:04.395Z,1011.13
2018-12-05T13:06:14.319Z,1011.12
2018-12-05T13:07:24.719Z,1011.14
2018-12-05T13:08:34.796Z,1011.12
2018-12-05T13:09:44.872Z,1011.1
2018-12-05T13:10:54.942Z,1011.12
2018-12-05T13:12:06.024Z,1011.11
2018-12-05T13:13:16.143Z,1011.09
2018-12-05T13:14:26.221Z,1011.08
2018-12-05T13:15:36.383Z,1011.08
2018-12-05T13:16:46.242Z,1011.08
2018-12-05T13:17:56.326Z,1011.05
2018-12-05T13:19:07.348Z,1011.05
2018-12-05T13:20:17.159Z,1011.03
2018-12-05T13:21:27.299Z,1011.01
2018-12-05T13:22:37.409Z,1011
2018-12-05T13:23:47.495Z,1011.04
2018-12-05T13:24:57.320Z,1011.05
2018-12-05T13:26:08.249Z,1011.07
2018-12-05T13:27:18.382Z,1011.09
2018-12-05T13:28:28.454Z,1011.07
2018-12-05T13:29:38.262Z,1011.06
2018-12-05T13:30:48.121Z,1011.03
2018-12-05T13:31:58.218Z,1011.07
2018-12-05T13:33:08.289Z,1011.08
2018-12-05T13:34:18.354Z,1011.06
2018-12-05T13:35:28.430Z,1011.03
2018-12-05T13:36:38.566Z,1011.02
2018-12-05T13:37:48.988Z,1010.97
2018-12-05T13:38:59.036Z,1011.02
2018-12-05T13:40:09.121Z,1010.99
2018-12-05T13:41:18.959Z,1011
2018-12-05T13:42:29.151Z,1011
2018-12-05T13:43:39.238Z,1011.01
2018-12-05T13:44:49.312Z,1010.99
2018-12-05T13:45:59.394Z,1011.01
2018-12-05T13:47:10.877Z,1011.04
2018-12-05T13:48:20.987Z,1011.01
2018-12-05T13:49:31.083Z,1011.03
2018-12-05T13:50:41.216Z,1010.99
2018-12-05T13:51:51.281Z,1011
2018-12-05T13:53:01.258Z,1011.01
2018-12-05T13:54:11.408Z,1011.02
2018-12-05T13:55:21.676Z,1011.04
2018-12-05T13:56:31.485Z,1011.07
2018-12-05T13:57:41.315Z,1011.03
2018-12-05T13:58:51.484Z,1011.03
2018-12-05T14:00:02.654Z,1011.06
2018-12-05T14:01:12.736Z,1011.05
2018-12-05T14:02:23.045Z,1011
2018-12-05T14:03:33.141Z,1011
2018-12-05T14:04:42.988Z,1010.96
2018-12-05T14:05:53.568Z,1010.97
2018-12-05T14:07:03.647Z,1010.97
2018-12-05T14:08:13.821Z,1010.97
2018-12-05T14:09:23.671Z,1010.96
2018-12-05T14:10:33.762Z,1010.96
2018-12-05T14:11:43.917Z,1010.93
2018-12-05T14:12:53.994Z,1010.98
2018-12-05T14:14:04.051Z,1010.96
2018-12-05T14:15:14.218Z,1010.96
2018-12-05T14:16:24.343Z,1010.92
2018-12-05T14:17:34.560Z,1010.97
2018-12-05T14:18:44.390Z,1010.94
2018-12-05T14:19:54.199Z,1010.99
2018-12-05T14:21:04.282Z,1011
2018-12-05T14:22:14.132Z,1010.98
2018-12-05T14:23:23.961Z,1010.97
2018-12-05T14:24:34.628Z,1010.94
2018-12-05T14:25:44.720Z,1010.92
2018-12-05T14:26:54.533Z,1010.91
2018-12-05T14:28:04.611Z,1010.93
2018-12-05T14:29:14.753Z,1010.9
2018-12-05T14:30:24.833Z,1010.88
2018-12-05T14:31:34.915Z,1010.88
2018-12-05T14:32:45.245Z,1010.88
2018-12-05T14:33:55.794Z,1010.91
2018-12-05T14:35:06.243Z,1010.89
2018-12-05T14:36:16.301Z,1010.91
2018-12-05T14:37:26.395Z,1010.92
2018-12-05T14:38:36.549Z,1010.92
2018-12-05T14:39:46.681Z,1010.91
2018-12-05T14:40:56.781Z,1010.94
2018-12-05T14:42:06.910Z,1010.98
2018-12-05T14:43:16.733Z,1010.97
2018-12-05T14:44:26.532Z,1010.94
2018-12-05T14:45:36.357Z,1010.89
2018-12-05T14:46:46.243Z,1010.88